sensor_id;sensor_type;location;lat;lon;timestamp;P1;durP1;ratioP1;P2;durP2;ratioP2
11935;SDS011;6027;48.576;9.180;2023-07-20T00:00:45;7.07;;;6.57;;
11935;SDS011;6027;48.576;9.180;2023-07-20T00:03:11;7.13;;;6.65;;
11935;SDS011;6027;48.576;9.180;2023-07-20T00:05:41;7.70;;;7.10;;
11935;SDS011;6027;48.576;9.180;2023-07-20T00:08:12;6.20;;;5.80;;
11935;SDS011;6027;48.576;9.180;2023-07-20T00:10:39;7.43;;;6.78;;
11935;SDS011;6027;48.576;9.180;2023-07-20T00:13:05;6.82;;;6.32;;
11935;SDS011;6027;48.576;9.180;2023-07-20T00:15:31;7.55;;;7.00;;
11935;SDS011;6027;48.576;9.180;2023-07-20T00:17:56;7.50;;;7.00;;
11935;SDS011;6027;48.576;9.180;2023-07-20T00:20:23;7.43;;;7.00;;
11935;SDS011;6027;48.576;9.180;2023-07-20T00:22:49;6.97;;;6.47;;
11935;SDS011;6027;48.576;9.180;2023-07-20T00:25:17;6.65;;;6.15;;
11935;SDS011;6027;48.576;9.180;2023-07-20T00:27:43;8.40;;;6.22;;
11935;SDS011;6027;48.576;9.180;2023-07-20T00:30:09;6.03;;;5.45;;
11935;SDS011;6027;48.576;9.180;2023-07-20T00:32:35;5.65;;;5.25;;
11935;SDS011;6027;48.576;9.180;2023-07-20T00:35:00;7.45;;;6.78;;
11935;SDS011;6027;48.576;9.180;2023-07-20T00:37:25;7.22;;;6.78;;
11935;SDS011;6027;48.576;9.180;2023-07-20T00:39:51;6.80;;;6.35;;
11935;SDS011;6027;48.576;9.180;2023-07-20T00:42:18;7.47;;;6.97;;
11935;SDS011;6027;48.576;9.180;2023-07-20T00:44:44;7.18;;;6.55;;
11935;SDS011;6027;48.576;9.180;2023-07-20T00:47:09;7.72;;;7.13;;
11935;SDS011;6027;48.576;9.180;2023-07-20T00:49:35;7.28;;;6.57;;
11935;SDS011;6027;48.576;9.180;2023-07-20T00:52:01;7.72;;;7.30;;
11935;SDS011;6027;48.576;9.180;2023-07-20T00:54:30;6.78;;;6.22;;
11935;SDS011;6027;48.576;9.180;2023-07-20T00:56:56;7.97;;;7.38;;
11935;SDS011;6027;48.576;9.180;2023-07-20T00:59:23;8.20;;;7.32;;
11935;SDS011;6027;48.576;9.180;2023-07-20T01:01:48;9.65;;;6.65;;
11935;SDS011;6027;48.576;9.180;2023-07-20T01:04:14;7.07;;;6.38;;
11935;SDS011;6027;48.576;9.180;2023-07-20T01:06:48;6.28;;;5.78;;
11935;SDS011;6027;48.576;9.180;2023-07-20T01:09:28;7.72;;;7.18;;
11935;SDS011;6027;48.576;9.180;2023-07-20T01:12:09;7.55;;;6.90;;
11935;SDS011;6027;48.576;9.180;2023-07-20T01:14:43;6.82;;;6.25;;
11935;SDS011;6027;48.576;9.180;2023-07-20T01:17:10;8.05;;;6.68;;
11935;SDS011;6027;48.576;9.180;2023-07-20T01:19:35;6.75;;;6.22;;
11935;SDS011;6027;48.576;9.180;2023-07-20T01:25:06;7.28;;;6.68;;
11935;SDS011;6027;48.576;9.180;2023-07-20T01:33:47;6.35;;;5.85;;
11935;SDS011;6027;48.576;9.180;2023-07-20T01:36:13;7.25;;;6.75;;
11935;SDS011;6027;48.576;9.180;2023-07-20T01:38:42;6.90;;;6.38;;
11935;SDS011;6027;48.576;9.180;2023-07-20T01:41:07;7.10;;;6.60;;
11935;SDS011;6027;48.576;9.180;2023-07-20T01:43:33;6.60;;;6.07;;
11935;SDS011;6027;48.576;9.180;2023-07-20T01:45:59;7.32;;;6.68;;
11935;SDS011;6027;48.576;9.180;2023-07-20T01:48:24;6.20;;;5.80;;
11935;SDS011;6027;48.576;9.180;2023-07-20T01:50:50;6.85;;;6.38;;
11935;SDS011;6027;48.576;9.180;2023-07-20T01:53:15;6.20;;;5.80;;
11935;SDS011;6027;48.576;9.180;2023-07-20T01:55:40;6.47;;;6.05;;
11935;SDS011;6027;48.576;9.180;2023-07-20T01:58:06;7.18;;;6.57;;
11935;SDS011;6027;48.576;9.180;2023-07-20T02:00:31;7.45;;;6.95;;
11935;SDS011;6027;48.576;9.180;2023-07-20T02:02:57;6.70;;;6.10;;
11935;SDS011;6027;48.576;9.180;2023-07-20T02:05:22;7.47;;;6.78;;
11935;SDS011;6027;48.576;9.180;2023-07-20T02:07:48;7.63;;;7.13;;
11935;SDS011;6027;48.576;9.180;2023-07-20T02:10:13;7.68;;;7.15;;
11935;SDS011;6027;48.576;9.180;2023-07-20T02:12:39;7.55;;;6.85;;
11935;SDS011;6027;48.576;9.180;2023-07-20T02:15:04;7.07;;;6.45;;
11935;SDS011;6027;48.576;9.180;2023-07-20T02:17:30;9.50;;;7.28;;
11935;SDS011;6027;48.576;9.180;2023-07-20T02:19:56;7.50;;;6.93;;
11935;SDS011;6027;48.576;9.180;2023-07-20T02:22:24;6.38;;;5.88;;
11935;SDS011;6027;48.576;9.180;2023-07-20T02:24:50;7.38;;;6.88;;
11935;SDS011;6027;48.576;9.180;2023-07-20T02:27:16;6.60;;;6.20;;
11935;SDS011;6027;48.576;9.180;2023-07-20T02:29:41;6.68;;;6.28;;
11935;SDS011;6027;48.576;9.180;2023-07-20T02:32:07;7.07;;;6.65;;
11935;SDS011;6027;48.576;9.180;2023-07-20T02:34:35;7.32;;;6.78;;
11935;SDS011;6027;48.576;9.180;2023-07-20T02:37:00;6.07;;;5.57;;
11935;SDS011;6027;48.576;9.180;2023-07-20T02:39:29;8.02;;;7.28;;
11935;SDS011;6027;48.576;9.180;2023-07-20T02:41:54;6.43;;;5.82;;
11935;SDS011;6027;48.576;9.180;2023-07-20T02:44:20;7.53;;;6.93;;
11935;SDS011;6027;48.576;9.180;2023-07-20T02:46:45;8.25;;;7.65;;
11935;SDS011;6027;48.576;9.180;2023-07-20T02:49:11;7.57;;;6.97;;
11935;SDS011;6027;48.576;9.180;2023-07-20T02:51:37;7.15;;;6.55;;
11935;SDS011;6027;48.576;9.180;2023-07-20T02:54:02;7.70;;;7.10;;
11935;SDS011;6027;48.576;9.180;2023-07-20T02:56:28;6.28;;;5.85;;
11935;SDS011;6027;48.576;9.180;2023-07-20T02:58:54;7.85;;;6.65;;
11935;SDS011;6027;48.576;9.180;2023-07-20T03:01:20;7.95;;;7.22;;
11935;SDS011;6027;48.576;9.180;2023-07-20T03:03:45;7.97;;;7.38;;
11935;SDS011;6027;48.576;9.180;2023-07-20T03:06:14;8.05;;;7.45;;
11935;SDS011;6027;48.576;9.180;2023-07-20T03:08:41;6.60;;;5.75;;
11935;SDS011;6027;48.576;9.180;2023-07-20T03:11:16;7.95;;;7.03;;
11935;SDS011;6027;48.576;9.180;2023-07-20T03:13:41;6.00;;;5.60;;
11935;SDS011;6027;48.576;9.180;2023-07-20T03:16:08;6.57;;;5.97;;
11935;SDS011;6027;48.576;9.180;2023-07-20T03:18:39;6.72;;;6.25;;
11935;SDS011;6027;48.576;9.180;2023-07-20T03:21:05;7.85;;;7.13;;
11935;SDS011;6027;48.576;9.180;2023-07-20T03:23:32;6.60;;;6.18;;
11935;SDS011;6027;48.576;9.180;2023-07-20T03:25:58;6.70;;;6.20;;
11935;SDS011;6027;48.576;9.180;2023-07-20T03:28:23;7.18;;;6.70;;
11935;SDS011;6027;48.576;9.180;2023-07-20T03:30:58;7.68;;;7.07;;
11935;SDS011;6027;48.576;9.180;2023-07-20T03:33:28;5.93;;;5.53;;
11935;SDS011;6027;48.576;9.180;2023-07-20T03:35:54;6.25;;;5.85;;
11935;SDS011;6027;48.576;9.180;2023-07-20T03:38:20;7.10;;;6.60;;
11935;SDS011;6027;48.576;9.180;2023-07-20T03:43:22;7.32;;;6.90;;
11935;SDS011;6027;48.576;9.180;2023-07-20T03:45:48;7.38;;;6.88;;
11935;SDS011;6027;48.576;9.180;2023-07-20T03:48:19;7.60;;;7.10;;
11935;SDS011;6027;48.576;9.180;2023-07-20T03:50:46;10.05;;;6.68;;
11935;SDS011;6027;48.576;9.180;2023-07-20T03:53:12;6.47;;;5.88;;
11935;SDS011;6027;48.576;9.180;2023-07-20T03:55:38;6.90;;;6.40;;
11935;SDS011;6027;48.576;9.180;2023-07-20T03:58:05;6.65;;;5.97;;
11935;SDS011;6027;48.576;9.180;2023-07-20T04:00:31;7.28;;;6.45;;
11935;SDS011;6027;48.576;9.180;2023-07-20T04:02:57;6.70;;;6.15;;
11935;SDS011;6027;48.576;9.180;2023-07-20T04:05:22;6.30;;;5.90;;
11935;SDS011;6027;48.576;9.180;2023-07-20T04:07:47;6.35;;;5.85;;
11935;SDS011;6027;48.576;9.180;2023-07-20T04:10:13;6.93;;;6.30;;
11935;SDS011;6027;48.576;9.180;2023-07-20T04:12:38;6.00;;;5.50;;
11935;SDS011;6027;48.576;9.180;2023-07-20T04:15:04;7.45;;;6.93;;
11935;SDS011;6027;48.576;9.180;2023-07-20T04:17:30;7.45;;;6.95;;
11935;SDS011;6027;48.576;9.180;2023-07-20T04:19:55;6.20;;;5.78;;
11935;SDS011;6027;48.576;9.180;2023-07-20T04:22:21;7.90;;;7.28;;
11935;SDS011;6027;48.576;9.180;2023-07-20T04:24:46;6.78;;;6.28;;
11935;SDS011;6027;48.576;9.180;2023-07-20T04:27:12;6.25;;;5.85;;
11935;SDS011;6027;48.576;9.180;2023-07-20T04:29:37;7.00;;;6.50;;
11935;SDS011;6027;48.576;9.180;2023-07-20T04:32:03;7.15;;;6.65;;
11935;SDS011;6027;48.576;9.180;2023-07-20T04:34:28;7.10;;;6.60;;
11935;SDS011;6027;48.576;9.180;2023-07-20T04:36:54;8.13;;;7.53;;
11935;SDS011;6027;48.576;9.180;2023-07-20T04:39:19;7.45;;;6.85;;
11935;SDS011;6027;48.576;9.180;2023-07-20T04:41:45;6.45;;;6.03;;
11935;SDS011;6027;48.576;9.180;2023-07-20T04:44:10;7.00;;;6.50;;
11935;SDS011;6027;48.576;9.180;2023-07-20T04:46:35;7.38;;;6.68;;
11935;SDS011;6027;48.576;9.180;2023-07-20T04:49:01;6.75;;;6.25;;
11935;SDS011;6027;48.576;9.180;2023-07-20T04:51:26;5.93;;;5.53;;
11935;SDS011;6027;48.576;9.180;2023-07-20T04:53:55;6.45;;;6.05;;
11935;SDS011;6027;48.576;9.180;2023-07-20T04:56:20;7.97;;;7.28;;
11935;SDS011;6027;48.576;9.180;2023-07-20T04:58:48;7.32;;;6.72;;
11935;SDS011;6027;48.576;9.180;2023-07-20T05:01:13;7.30;;;6.80;;
11935;SDS011;6027;48.576;9.180;2023-07-20T05:03:39;6.40;;;5.93;;
11935;SDS011;6027;48.576;9.180;2023-07-20T05:06:04;7.15;;;6.53;;
11935;SDS011;6027;48.576;9.180;2023-07-20T05:08:30;7.30;;;6.80;;
11935;SDS011;6027;48.576;9.180;2023-07-20T05:10:55;7.32;;;5.88;;
11935;SDS011;6027;48.576;9.180;2023-07-20T05:13:21;7.72;;;7.10;;
11935;SDS011;6027;48.576;9.180;2023-07-20T05:15:46;7.13;;;6.63;;
11935;SDS011;6027;48.576;9.180;2023-07-20T05:18:11;7.72;;;7.13;;
11935;SDS011;6027;48.576;9.180;2023-07-20T05:20:37;8.60;;;8.00;;
11935;SDS011;6027;48.576;9.180;2023-07-20T05:23:03;7.50;;;6.78;;
11935;SDS011;6027;48.576;9.180;2023-07-20T05:25:28;7.03;;;6.40;;
11935;SDS011;6027;48.576;9.180;2023-07-20T05:27:54;6.57;;;6.15;;
11935;SDS011;6027;48.576;9.180;2023-07-20T05:30:20;7.28;;;6.63;;
11935;SDS011;6027;48.576;9.180;2023-07-20T05:32:46;7.50;;;6.75;;
11935;SDS011;6027;48.576;9.180;2023-07-20T05:35:16;6.55;;;6.15;;
11935;SDS011;6027;48.576;9.180;2023-07-20T05:37:43;7.78;;;7.00;;
11935;SDS011;6027;48.576;9.180;2023-07-20T05:40:10;7.35;;;6.65;;
11935;SDS011;6027;48.576;9.180;2023-07-20T05:42:37;7.53;;;6.93;;
11935;SDS011;6027;48.576;9.180;2023-07-20T05:45:03;7.38;;;6.68;;
11935;SDS011;6027;48.576;9.180;2023-07-20T05:47:29;7.32;;;6.82;;
11935;SDS011;6027;48.576;9.180;2023-07-20T05:49:54;5.90;;;5.40;;
11935;SDS011;6027;48.576;9.180;2023-07-20T05:52:20;7.88;;;7.28;;
11935;SDS011;6027;48.576;9.180;2023-07-20T05:54:45;7.82;;;7.13;;
11935;SDS011;6027;48.576;9.180;2023-07-20T05:57:10;6.68;;;6.15;;
11935;SDS011;6027;48.576;9.180;2023-07-20T05:59:36;7.57;;;7.03;;
11935;SDS011;6027;48.576;9.180;2023-07-20T06:02:03;7.50;;;6.90;;
11935;SDS011;6027;48.576;9.180;2023-07-20T06:04:29;7.93;;;7.32;;
11935;SDS011;6027;48.576;9.180;2023-07-20T06:06:54;7.80;;;7.20;;
11935;SDS011;6027;48.576;9.180;2023-07-20T06:09:20;7.95;;;7.28;;
11935;SDS011;6027;48.576;9.180;2023-07-20T06:11:45;7.30;;;6.70;;
11935;SDS011;6027;48.576;9.180;2023-07-20T06:14:11;6.70;;;6.30;;
11935;SDS011;6027;48.576;9.180;2023-07-20T06:16:36;7.25;;;6.65;;
11935;SDS011;6027;48.576;9.180;2023-07-20T06:19:01;8.13;;;7.63;;
11935;SDS011;6027;48.576;9.180;2023-07-20T06:21:27;8.30;;;7.80;;
11935;SDS011;6027;48.576;9.180;2023-07-20T06:23:53;8.05;;;7.45;;
11935;SDS011;6027;48.576;9.180;2023-07-20T06:26:18;7.03;;;6.38;;
11935;SDS011;6027;48.576;9.180;2023-07-20T06:28:45;8.80;;;8.20;;
11935;SDS011;6027;48.576;9.180;2023-07-20T06:31:10;7.25;;;6.55;;
11935;SDS011;6027;48.576;9.180;2023-07-20T06:33:36;7.85;;;7.20;;
11935;SDS011;6027;48.576;9.180;2023-07-20T06:36:02;9.18;;;8.57;;
11935;SDS011;6027;48.576;9.180;2023-07-20T06:38:27;7.50;;;6.97;;
11935;SDS011;6027;48.576;9.180;2023-07-20T06:40:53;7.65;;;7.20;;
11935;SDS011;6027;48.576;9.180;2023-07-20T06:43:18;10.30;;;7.13;;
11935;SDS011;6027;48.576;9.180;2023-07-20T06:45:44;8.20;;;7.55;;
11935;SDS011;6027;48.576;9.180;2023-07-20T06:48:09;8.82;;;8.18;;
11935;SDS011;6027;48.576;9.180;2023-07-20T06:50:35;9.90;;;9.00;;
11935;SDS011;6027;48.576;9.180;2023-07-20T06:53:00;7.70;;;6.75;;
11935;SDS011;6027;48.576;9.180;2023-07-20T06:55:29;8.35;;;7.55;;
11935;SDS011;6027;48.576;9.180;2023-07-20T06:57:54;7.10;;;6.55;;
11935;SDS011;6027;48.576;9.180;2023-07-20T07:00:20;10.73;;;9.35;;
11935;SDS011;6027;48.576;9.180;2023-07-20T07:02:45;6.95;;;6.45;;
11935;SDS011;6027;48.576;9.180;2023-07-20T07:05:11;7.60;;;6.90;;
11935;SDS011;6027;48.576;9.180;2023-07-20T07:07:38;7.85;;;7.20;;
11935;SDS011;6027;48.576;9.180;2023-07-20T07:10:04;7.32;;;6.75;;
11935;SDS011;6027;48.576;9.180;2023-07-20T07:12:30;8.07;;;7.30;;
11935;SDS011;6027;48.576;9.180;2023-07-20T07:14:56;8.15;;;7.50;;
11935;SDS011;6027;48.576;9.180;2023-07-20T07:17:22;7.45;;;6.88;;
11935;SDS011;6027;48.576;9.180;2023-07-20T07:19:47;9.00;;;8.30;;
11935;SDS011;6027;48.576;9.180;2023-07-20T07:22:13;8.77;;;8.05;;
11935;SDS011;6027;48.576;9.180;2023-07-20T07:24:39;8.38;;;7.68;;
11935;SDS011;6027;48.576;9.180;2023-07-20T07:27:07;6.90;;;6.40;;
11935;SDS011;6027;48.576;9.180;2023-07-20T07:29:34;8.45;;;7.75;;
11935;SDS011;6027;48.576;9.180;2023-07-20T07:31:59;8.68;;;8.02;;
11935;SDS011;6027;48.576;9.180;2023-07-20T07:34:24;8.05;;;7.30;;
11935;SDS011;6027;48.576;9.180;2023-07-20T07:36:50;7.85;;;7.25;;
11935;SDS011;6027;48.576;9.180;2023-07-20T07:39:16;9.88;;;9.05;;
11935;SDS011;6027;48.576;9.180;2023-07-20T07:41:41;8.05;;;7.35;;
11935;SDS011;6027;48.576;9.180;2023-07-20T07:44:07;8.93;;;8.05;;
11935;SDS011;6027;48.576;9.180;2023-07-20T07:46:32;9.75;;;8.95;;
11935;SDS011;6027;48.576;9.180;2023-07-20T07:48:57;6.70;;;6.20;;
11935;SDS011;6027;48.576;9.180;2023-07-20T07:51:23;9.18;;;8.52;;
11935;SDS011;6027;48.576;9.180;2023-07-20T07:53:48;8.68;;;8.07;;
11935;SDS011;6027;48.576;9.180;2023-07-20T07:56:14;8.05;;;7.45;;
11935;SDS011;6027;48.576;9.180;2023-07-20T07:58:40;8.20;;;7.60;;
11935;SDS011;6027;48.576;9.180;2023-07-20T08:01:05;7.28;;;6.70;;
11935;SDS011;6027;48.576;9.180;2023-07-20T08:03:31;8.80;;;8.18;;
11935;SDS011;6027;48.576;9.180;2023-07-20T08:05:56;9.40;;;8.45;;
11935;SDS011;6027;48.576;9.180;2023-07-20T08:08:22;8.40;;;7.63;;
11935;SDS011;6027;48.576;9.180;2023-07-20T08:10:48;7.38;;;6.00;;
11935;SDS011;6027;48.576;9.180;2023-07-20T08:13:13;8.10;;;7.40;;
11935;SDS011;6027;48.576;9.180;2023-07-20T08:15:39;7.65;;;7.03;;
11935;SDS011;6027;48.576;9.180;2023-07-20T08:18:05;9.27;;;6.25;;
11935;SDS011;6027;48.576;9.180;2023-07-20T08:20:32;8.35;;;7.65;;
11935;SDS011;6027;48.576;9.180;2023-07-20T08:23:00;9.10;;;8.40;;
11935;SDS011;6027;48.576;9.180;2023-07-20T08:25:26;9.38;;;8.02;;
11935;SDS011;6027;48.576;9.180;2023-07-20T08:27:51;8.40;;;7.63;;
11935;SDS011;6027;48.576;9.180;2023-07-20T08:30:17;8.32;;;7.72;;
11935;SDS011;6027;48.576;9.180;2023-07-20T08:32:42;7.65;;;7.03;;
11935;SDS011;6027;48.576;9.180;2023-07-20T08:35:08;7.78;;;7.07;;
11935;SDS011;6027;48.576;9.180;2023-07-20T08:37:34;8.25;;;7.65;;
11935;SDS011;6027;48.576;9.180;2023-07-20T08:39:59;8.13;;;7.63;;
11935;SDS011;6027;48.576;9.180;2023-07-20T08:42:25;7.90;;;7.30;;
11935;SDS011;6027;48.576;9.180;2023-07-20T08:44:52;9.48;;;8.70;;
11935;SDS011;6027;48.576;9.180;2023-07-20T08:47:18;7.85;;;7.35;;
11935;SDS011;6027;48.576;9.180;2023-07-20T08:49:45;7.60;;;7.05;;
11935;SDS011;6027;48.576;9.180;2023-07-20T08:52:13;7.22;;;6.32;;
11935;SDS011;6027;48.576;9.180;2023-07-20T08:54:39;7.85;;;7.10;;
11935;SDS011;6027;48.576;9.180;2023-07-20T08:57:05;6.40;;;6.00;;
11935;SDS011;6027;48.576;9.180;2023-07-20T08:59:31;7.75;;;7.13;;
11935;SDS011;6027;48.576;9.180;2023-07-20T09:02:00;8.63;;;7.80;;
11935;SDS011;6027;48.576;9.180;2023-07-20T09:04:27;7.20;;;6.53;;
11935;SDS011;6027;48.576;9.180;2023-07-20T09:06:52;7.78;;;7.28;;
11935;SDS011;6027;48.576;9.180;2023-07-20T09:09:18;7.35;;;6.75;;
11935;SDS011;6027;48.576;9.180;2023-07-20T09:11:44;6.63;;;6.13;;
11935;SDS011;6027;48.576;9.180;2023-07-20T09:14:12;7.38;;;6.78;;
11935;SDS011;6027;48.576;9.180;2023-07-20T09:16:53;7.97;;;7.13;;
11935;SDS011;6027;48.576;9.180;2023-07-20T09:19:20;7.78;;;7.28;;
11935;SDS011;6027;48.576;9.180;2023-07-20T09:21:50;8.25;;;7.65;;
11935;SDS011;6027;48.576;9.180;2023-07-20T09:24:17;8.30;;;7.68;;
11935;SDS011;6027;48.576;9.180;2023-07-20T09:26:44;7.30;;;6.70;;
11935;SDS011;6027;48.576;9.180;2023-07-20T09:29:13;9.48;;;6.85;;
11935;SDS011;6027;48.576;9.180;2023-07-20T09:31:38;7.88;;;7.38;;
11935;SDS011;6027;48.576;9.180;2023-07-20T09:34:07;7.20;;;6.50;;
11935;SDS011;6027;48.576;9.180;2023-07-20T09:36:36;8.73;;;7.95;;
11935;SDS011;6027;48.576;9.180;2023-07-20T09:39:02;8.20;;;7.63;;
11935;SDS011;6027;48.576;9.180;2023-07-20T09:41:29;7.90;;;7.22;;
11935;SDS011;6027;48.576;9.180;2023-07-20T09:44:04;7.38;;;6.75;;
11935;SDS011;6027;48.576;9.180;2023-07-20T09:46:40;7.90;;;7.30;;
11935;SDS011;6027;48.576;9.180;2023-07-20T09:49:08;6.63;;;6.13;;
11935;SDS011;6027;48.576;9.180;2023-07-20T09:51:34;7.80;;;6.82;;
11935;SDS011;6027;48.576;9.180;2023-07-20T09:54:00;6.50;;;6.05;;
11935;SDS011;6027;48.576;9.180;2023-07-20T09:56:26;6.18;;;5.57;;
11935;SDS011;6027;48.576;9.180;2023-07-20T09:58:53;7.22;;;6.72;;
11935;SDS011;6027;48.576;9.180;2023-07-20T10:01:20;8.20;;;7.50;;
11935;SDS011;6027;48.576;9.180;2023-07-20T10:03:49;6.97;;;6.57;;
11935;SDS011;6027;48.576;9.180;2023-07-20T10:06:20;7.55;;;6.85;;
11935;SDS011;6027;48.576;9.180;2023-07-20T10:08:49;7.22;;;6.72;;
11935;SDS011;6027;48.576;9.180;2023-07-20T10:11:22;6.78;;;6.28;;
11935;SDS011;6027;48.576;9.180;2023-07-20T10:13:54;7.22;;;6.72;;
11935;SDS011;6027;48.576;9.180;2023-07-20T10:16:31;5.75;;;5.35;;
11935;SDS011;6027;48.576;9.180;2023-07-20T10:21:51;6.30;;;5.90;;
11935;SDS011;6027;48.576;9.180;2023-07-20T10:24:24;6.50;;;6.10;;
11935;SDS011;6027;48.576;9.180;2023-07-20T10:26:50;7.30;;;6.60;;
11935;SDS011;6027;48.576;9.180;2023-07-20T10:29:16;7.05;;;5.53;;
11935;SDS011;6027;48.576;9.180;2023-07-20T10:31:42;6.93;;;6.53;;
11935;SDS011;6027;48.576;9.180;2023-07-20T10:34:09;6.25;;;5.82;;
11935;SDS011;6027;48.576;9.180;2023-07-20T10:36:35;6.18;;;5.68;;
11935;SDS011;6027;48.576;9.180;2023-07-20T10:39:22;6.47;;;5.97;;
11935;SDS011;6027;48.576;9.180;2023-07-20T10:42:03;6.18;;;5.85;;
11935;SDS011;6027;48.576;9.180;2023-07-20T10:44:31;5.20;;;4.90;;
11935;SDS011;6027;48.576;9.180;2023-07-20T10:47:00;6.07;;;5.55;;
11935;SDS011;6027;48.576;9.180;2023-07-20T10:49:32;6.00;;;5.68;;
11935;SDS011;6027;48.576;9.180;2023-07-20T10:51:59;5.55;;;5.20;;
11935;SDS011;6027;48.576;9.180;2023-07-20T10:56:55;7.25;;;6.60;;
11935;SDS011;6027;48.576;9.180;2023-07-20T11:01:57;6.35;;;5.55;;
11935;SDS011;6027;48.576;9.180;2023-07-20T11:04:40;5.63;;;5.32;;
11935;SDS011;6027;48.576;9.180;2023-07-20T11:07:07;5.68;;;5.28;;
11935;SDS011;6027;48.576;9.180;2023-07-20T11:09:37;6.18;;;5.75;;
11935;SDS011;6027;48.576;9.180;2023-07-20T11:12:21;5.82;;;5.53;;
11935;SDS011;6027;48.576;9.180;2023-07-20T11:14:54;5.90;;;5.53;;
11935;SDS011;6027;48.576;9.180;2023-07-20T11:17:30;5.43;;;5.13;;
11935;SDS011;6027;48.576;9.180;2023-07-20T11:19:57;5.82;;;5.18;;
11935;SDS011;6027;48.576;9.180;2023-07-20T11:22:26;5.35;;;5.05;;
11935;SDS011;6027;48.576;9.180;2023-07-20T11:24:55;5.30;;;5.00;;
11935;SDS011;6027;48.576;9.180;2023-07-20T11:27:21;6.20;;;5.75;;
11935;SDS011;6027;48.576;9.180;2023-07-20T11:29:47;6.05;;;5.65;;
11935;SDS011;6027;48.576;9.180;2023-07-20T11:32:19;5.10;;;4.80;;
11935;SDS011;6027;48.576;9.180;2023-07-20T11:34:46;5.78;;;5.43;;
11935;SDS011;6027;48.576;9.180;2023-07-20T11:37:12;6.22;;;5.60;;
11935;SDS011;6027;48.576;9.180;2023-07-20T11:39:38;5.20;;;4.90;;
11935;SDS011;6027;48.576;9.180;2023-07-20T11:42:05;6.40;;;5.95;;
11935;SDS011;6027;48.576;9.180;2023-07-20T11:44:30;5.72;;;5.43;;
11935;SDS011;6027;48.576;9.180;2023-07-20T11:46:59;5.85;;;5.35;;
11935;SDS011;6027;48.576;9.180;2023-07-20T11:49:29;6.25;;;5.75;;
11935;SDS011;6027;48.576;9.180;2023-07-20T11:52:06;5.85;;;5.53;;
11935;SDS011;6027;48.576;9.180;2023-07-20T11:54:34;6.03;;;5.63;;
11935;SDS011;6027;48.576;9.180;2023-07-20T11:57:04;5.15;;;4.78;;
11935;SDS011;6027;48.576;9.180;2023-07-20T11:59:33;6.00;;;5.60;;
11935;SDS011;6027;48.576;9.180;2023-07-20T12:02:02;5.07;;;4.68;;
11935;SDS011;6027;48.576;9.180;2023-07-20T12:04:28;5.63;;;5.22;;
11935;SDS011;6027;48.576;9.180;2023-07-20T12:06:54;6.15;;;5.75;;
11935;SDS011;6027;48.576;9.180;2023-07-20T12:09:20;5.60;;;4.97;;
11935;SDS011;6027;48.576;9.180;2023-07-20T12:11:48;5.60;;;5.30;;
11935;SDS011;6027;48.576;9.180;2023-07-20T12:14:14;5.95;;;5.55;;
11935;SDS011;6027;48.576;9.180;2023-07-20T12:16:40;5.55;;;5.05;;
11935;SDS011;6027;48.576;9.180;2023-07-20T12:19:06;5.20;;;4.90;;
11935;SDS011;6027;48.576;9.180;2023-07-20T12:21:36;6.28;;;5.82;;
11935;SDS011;6027;48.576;9.180;2023-07-20T12:24:04;4.82;;;4.43;;
11935;SDS011;6027;48.576;9.180;2023-07-20T12:26:30;6.38;;;5.57;;
11935;SDS011;6027;48.576;9.180;2023-07-20T12:28:57;5.55;;;5.15;;
11935;SDS011;6027;48.576;9.180;2023-07-20T12:31:23;4.88;;;4.45;;
11935;SDS011;6027;48.576;9.180;2023-07-20T12:33:50;5.90;;;5.50;;
11935;SDS011;6027;48.576;9.180;2023-07-20T12:36:16;5.43;;;5.03;;
11935;SDS011;6027;48.576;9.180;2023-07-20T12:38:42;4.63;;;4.30;;
11935;SDS011;6027;48.576;9.180;2023-07-20T12:41:09;5.20;;;4.82;;
11935;SDS011;6027;48.576;9.180;2023-07-20T12:43:37;5.80;;;5.40;;
11935;SDS011;6027;48.576;9.180;2023-07-20T12:46:03;5.78;;;5.38;;
11935;SDS011;6027;48.576;9.180;2023-07-20T12:48:29;6.07;;;5.18;;
11935;SDS011;6027;48.576;9.180;2023-07-20T12:50:54;4.95;;;4.60;;
11935;SDS011;6027;48.576;9.180;2023-07-20T12:53:20;5.28;;;4.97;;
11935;SDS011;6027;48.576;9.180;2023-07-20T12:55:45;5.15;;;4.85;;
11935;SDS011;6027;48.576;9.180;2023-07-20T12:58:11;5.22;;;4.90;;
11935;SDS011;6027;48.576;9.180;2023-07-20T13:00:37;5.25;;;4.93;;
11935;SDS011;6027;48.576;9.180;2023-07-20T13:03:02;5.70;;;5.30;;
11935;SDS011;6027;48.576;9.180;2023-07-20T13:05:32;5.53;;;4.85;;
11935;SDS011;6027;48.576;9.180;2023-07-20T13:07:58;5.00;;;4.70;;
11935;SDS011;6027;48.576;9.180;2023-07-20T13:10:23;6.20;;;5.80;;
11935;SDS011;6027;48.576;9.180;2023-07-20T13:12:49;6.65;;;6.07;;
11935;SDS011;6027;48.576;9.180;2023-07-20T13:15:15;6.38;;;5.75;;
11935;SDS011;6027;48.576;9.180;2023-07-20T13:17:41;5.82;;;5.43;;
11935;SDS011;6027;48.576;9.180;2023-07-20T13:20:07;5.97;;;5.50;;
11935;SDS011;6027;48.576;9.180;2023-07-20T13:22:35;6.22;;;5.80;;
11935;SDS011;6027;48.576;9.180;2023-07-20T13:25:00;5.47;;;4.95;;
11935;SDS011;6027;48.576;9.180;2023-07-20T13:27:26;5.50;;;5.10;;
11935;SDS011;6027;48.576;9.180;2023-07-20T13:29:52;5.43;;;5.13;;
11935;SDS011;6027;48.576;9.180;2023-07-20T13:32:17;5.63;;;5.28;;
11935;SDS011;6027;48.576;9.180;2023-07-20T13:34:43;5.13;;;4.82;;
11935;SDS011;6027;48.576;9.180;2023-07-20T13:37:10;5.63;;;5.22;;
11935;SDS011;6027;48.576;9.180;2023-07-20T13:39:36;4.93;;;4.63;;
11935;SDS011;6027;48.576;9.180;2023-07-20T13:42:01;5.90;;;5.50;;
11935;SDS011;6027;48.576;9.180;2023-07-20T13:44:30;5.78;;;5.47;;
11935;SDS011;6027;48.576;9.180;2023-07-20T13:46:55;6.55;;;6.13;;
11935;SDS011;6027;48.576;9.180;2023-07-20T13:49:21;4.82;;;4.53;;
11935;SDS011;6027;48.576;9.180;2023-07-20T13:51:46;5.57;;;5.15;;
11935;SDS011;6027;48.576;9.180;2023-07-20T13:54:12;5.20;;;4.90;;
11935;SDS011;6027;48.576;9.180;2023-07-20T13:56:37;5.03;;;4.65;;
11935;SDS011;6027;48.576;9.180;2023-07-20T13:59:03;6.72;;;4.40;;
11935;SDS011;6027;48.576;9.180;2023-07-20T14:01:28;6.50;;;5.90;;
11935;SDS011;6027;48.576;9.180;2023-07-20T14:03:55;8.07;;;6.07;;
11935;SDS011;6027;48.576;9.180;2023-07-20T14:06:21;6.00;;;5.50;;
11935;SDS011;6027;48.576;9.180;2023-07-20T14:08:47;5.88;;;5.47;;
11935;SDS011;6027;48.576;9.180;2023-07-20T14:11:13;5.70;;;5.20;;
11935;SDS011;6027;48.576;9.180;2023-07-20T14:13:39;6.57;;;5.57;;
11935;SDS011;6027;48.576;9.180;2023-07-20T14:16:05;6.38;;;5.97;;
11935;SDS011;6027;48.576;9.180;2023-07-20T14:18:30;5.47;;;5.18;;
11935;SDS011;6027;48.576;9.180;2023-07-20T14:20:56;5.10;;;4.65;;
11935;SDS011;6027;48.576;9.180;2023-07-20T14:23:21;5.82;;;5.32;;
11935;SDS011;6027;48.576;9.180;2023-07-20T14:25:47;6.43;;;5.93;;
11935;SDS011;6027;48.576;9.180;2023-07-20T14:28:13;5.43;;;4.93;;
11935;SDS011;6027;48.576;9.180;2023-07-20T14:30:38;5.47;;;5.18;;
11935;SDS011;6027;48.576;9.180;2023-07-20T14:33:04;6.30;;;5.95;;
11935;SDS011;6027;48.576;9.180;2023-07-20T14:35:29;5.90;;;5.50;;
11935;SDS011;6027;48.576;9.180;2023-07-20T14:37:55;5.50;;;5.10;;
11935;SDS011;6027;48.576;9.180;2023-07-20T14:40:20;5.82;;;5.30;;
11935;SDS011;6027;48.576;9.180;2023-07-20T14:42:46;5.63;;;5.28;;
11935;SDS011;6027;48.576;9.180;2023-07-20T14:45:11;5.25;;;4.95;;
11935;SDS011;6027;48.576;9.180;2023-07-20T14:47:37;5.72;;;5.30;;
11935;SDS011;6027;48.576;9.180;2023-07-20T14:50:02;5.55;;;5.15;;
11935;SDS011;6027;48.576;9.180;2023-07-20T14:52:28;4.97;;;4.68;;
11935;SDS011;6027;48.576;9.180;2023-07-20T14:54:54;6.00;;;5.60;;
11935;SDS011;6027;48.576;9.180;2023-07-20T14:57:20;6.72;;;6.22;;
11935;SDS011;6027;48.576;9.180;2023-07-20T14:59:48;7.25;;;5.28;;
11935;SDS011;6027;48.576;9.180;2023-07-20T15:02:14;6.35;;;5.95;;
11935;SDS011;6027;48.576;9.180;2023-07-20T15:04:49;5.70;;;5.25;;
11935;SDS011;6027;48.576;9.180;2023-07-20T15:07:16;6.07;;;5.68;;
11935;SDS011;6027;48.576;9.180;2023-07-20T15:09:43;5.60;;;5.30;;
11935;SDS011;6027;48.576;9.180;2023-07-20T15:12:09;6.40;;;6.03;;
11935;SDS011;6027;48.576;9.180;2023-07-20T15:14:35;6.00;;;5.55;;
11935;SDS011;6027;48.576;9.180;2023-07-20T15:17:01;6.25;;;5.75;;